TAF KPGA
KPGA 270524Z 2706/2806 VRB03KT P6SM SCT250=
METAR KPGA
WC KPGA
WS KPGA
WV KPGA